sensor_id;sensor_type;location;lat;lon;timestamp;pressure;altitude;pressure_sealevel;temperature;humidity
48077;BME280;33854;57.708;12.008;2023-05-11T00:01:31;100951.47;;;13.37;90.86
48077;BME280;33854;57.708;12.008;2023-05-11T00:03:56;100951.81;;;13.31;91.15
48077;BME280;33854;57.708;12.008;2023-05-11T00:06:22;100953.91;;;13.25;91.63
48077;BME280;33854;57.708;12.008;2023-05-11T00:08:48;100945.00;;;13.27;91.38
48077;BME280;33854;57.708;12.008;2023-05-11T00:11:13;100952.56;;;13.33;91.03
48077;BME280;33854;57.708;12.008;2023-05-11T00:13:38;100958.31;;;13.40;91.23
48077;BME280;33854;57.708;12.008;2023-05-11T00:16:04;100956.53;;;13.40;91.22
48077;BME280;33854;57.708;12.008;2023-05-11T00:18:30;100953.47;;;13.32;91.81
48077;BME280;33854;57.708;12.008;2023-05-11T00:20:55;100947.91;;;13.23;92.19
48077;BME280;33854;57.708;12.008;2023-05-11T00:23:21;100952.00;;;13.11;92.62
48077;BME280;33854;57.708;12.008;2023-05-11T00:25:46;100958.47;;;13.04;93.77
48077;BME280;33854;57.708;12.008;2023-05-11T00:28:12;100969.41;;;12.95;93.82
48077;BME280;33854;57.708;12.008;2023-05-11T00:30:39;100962.97;;;12.85;95.16
48077;BME280;33854;57.708;12.008;2023-05-11T00:33:05;100964.88;;;12.81;95.48
48077;BME280;33854;57.708;12.008;2023-05-11T00:35:30;100960.06;;;12.74;96.34
48077;BME280;33854;57.708;12.008;2023-05-11T00:37:57;100960.22;;;12.71;96.44
48077;BME280;33854;57.708;12.008;2023-05-11T00:40:23;100954.53;;;12.63;97.87
48077;BME280;33854;57.708;12.008;2023-05-11T00:42:48;100962.59;;;12.58;99.18
48077;BME280;33854;57.708;12.008;2023-05-11T00:45:13;100962.06;;;12.51;99.34
48077;BME280;33854;57.708;12.008;2023-05-11T00:47:39;100962.19;;;12.48;99.60
48077;BME280;33854;57.708;12.008;2023-05-11T00:50:06;100972.81;;;12.45;99.88
48077;BME280;33854;57.708;12.008;2023-05-11T00:52:32;100975.63;;;12.42;100.00
48077;BME280;33854;57.708;12.008;2023-05-11T00:54:58;100972.22;;;12.40;100.00
48077;BME280;33854;57.708;12.008;2023-05-11T00:57:24;100967.22;;;12.36;100.00
48077;BME280;33854;57.708;12.008;2023-05-11T00:59:49;100964.97;;;12.28;100.00
48077;BME280;33854;57.708;12.008;2023-05-11T01:02:15;100964.19;;;12.26;100.00
48077;BME280;33854;57.708;12.008;2023-05-11T01:04:41;100975.53;;;12.27;100.00
48077;BME280;33854;57.708;12.008;2023-05-11T01:07:18;100977.44;;;12.23;100.00
48077;BME280;33854;57.708;12.008;2023-05-11T01:12:58;100971.56;;;12.18;100.00
48077;BME280;33854;57.708;12.008;2023-05-11T01:15:32;100966.63;;;12.12;100.00
48077;BME280;33854;57.708;12.008;2023-05-11T01:20:39;100978.97;;;12.10;100.00
48077;BME280;33854;57.708;12.008;2023-05-11T01:31:09;100971.84;;;11.95;100.00
48077;BME280;33854;57.708;12.008;2023-05-11T01:33:54;100977.97;;;11.94;100.00
48077;BME280;33854;57.708;12.008;2023-05-11T01:36:24;100964.56;;;11.83;100.00
48077;BME280;33854;57.708;12.008;2023-05-11T01:38:53;100969.38;;;11.92;100.00
48077;BME280;33854;57.708;12.008;2023-05-11T01:41:21;100969.09;;;11.98;100.00
48077;BME280;33854;57.708;12.008;2023-05-11T01:43:57;100969.00;;;11.99;100.00
48077;BME280;33854;57.708;12.008;2023-05-11T01:46:25;100964.44;;;11.86;100.00
48077;BME280;33854;57.708;12.008;2023-05-11T01:48:55;100977.34;;;11.89;100.00
48077;BME280;33854;57.708;12.008;2023-05-11T01:51:23;100988.75;;;11.88;100.00
48077;BME280;33854;57.708;12.008;2023-05-11T01:53:50;100984.06;;;11.94;100.00
48077;BME280;33854;57.708;12.008;2023-05-11T01:56:19;100984.16;;;11.93;100.00
48077;BME280;33854;57.708;12.008;2023-05-11T01:58:46;100976.31;;;11.93;100.00
48077;BME280;33854;57.708;12.008;2023-05-11T02:01:15;100979.81;;;11.92;100.00
48077;BME280;33854;57.708;12.008;2023-05-11T02:03:41;100980.69;;;11.92;100.00
48077;BME280;33854;57.708;12.008;2023-05-11T02:06:10;100984.06;;;11.94;100.00
48077;BME280;33854;57.708;12.008;2023-05-11T02:08:38;100985.78;;;11.95;100.00
48077;BME280;33854;57.708;12.008;2023-05-11T02:11:05;100981.41;;;11.96;100.00
48077;BME280;33854;57.708;12.008;2023-05-11T02:13:31;100987.28;;;11.99;100.00
48077;BME280;33854;57.708;12.008;2023-05-11T02:15:59;100986.47;;;11.99;100.00
48077;BME280;33854;57.708;12.008;2023-05-11T02:18:27;100978.53;;;12.00;100.00
48077;BME280;33854;57.708;12.008;2023-05-11T02:20:53;100993.53;;;11.97;100.00
48077;BME280;33854;57.708;12.008;2023-05-11T02:23:21;100991.63;;;12.00;100.00
48077;BME280;33854;57.708;12.008;2023-05-11T02:25:48;100991.47;;;12.04;100.00
48077;BME280;33854;57.708;12.008;2023-05-11T02:28:15;100990.63;;;12.03;100.00
48077;BME280;33854;57.708;12.008;2023-05-11T02:30:44;100990.56;;;12.05;100.00
48077;BME280;33854;57.708;12.008;2023-05-11T02:33:15;100995.41;;;12.12;100.00
48077;BME280;33854;57.708;12.008;2023-05-11T02:35:42;100998.19;;;12.09;100.00
48077;BME280;33854;57.708;12.008;2023-05-11T02:38:09;100982.78;;;12.03;100.00
48077;BME280;33854;57.708;12.008;2023-05-11T02:40:42;100995.56;;;12.09;100.00
48077;BME280;33854;57.708;12.008;2023-05-11T02:43:11;100991.19;;;12.10;100.00
48077;BME280;33854;57.708;12.008;2023-05-11T02:45:41;100990.00;;;11.98;100.00
48077;BME280;33854;57.708;12.008;2023-05-11T02:48:18;100998.69;;;11.98;100.00
48077;BME280;33854;57.708;12.008;2023-05-11T02:50:45;100996.50;;;12.08;100.00
48077;BME280;33854;57.708;12.008;2023-05-11T02:53:13;100993.66;;;12.13;100.00
48077;BME280;33854;57.708;12.008;2023-05-11T02:55:40;100993.66;;;12.13;100.00
48077;BME280;33854;57.708;12.008;2023-05-11T02:58:06;100995.81;;;12.05;100.00
48077;BME280;33854;57.708;12.008;2023-05-11T03:00:31;101005.19;;;12.09;100.00
48077;BME280;33854;57.708;12.008;2023-05-11T03:02:57;101009.78;;;12.04;100.00
48077;BME280;33854;57.708;12.008;2023-05-11T03:05:23;100983.16;;;11.95;100.00
48077;BME280;33854;57.708;12.008;2023-05-11T03:07:50;101013.13;;;12.07;100.00
48077;BME280;33854;57.708;12.008;2023-05-11T03:10:16;101004.78;;;11.99;100.00
48077;BME280;33854;57.708;12.008;2023-05-11T03:12:42;101007.88;;;12.07;100.00
48077;BME280;33854;57.708;12.008;2023-05-11T03:15:09;101013.88;;;12.09;100.00
48077;BME280;33854;57.708;12.008;2023-05-11T03:17:36;101023.88;;;12.01;100.00
48077;BME280;33854;57.708;12.008;2023-05-11T03:20:05;101016.72;;;12.05;100.00
48077;BME280;33854;57.708;12.008;2023-05-11T03:22:32;101027.25;;;12.03;100.00
48077;BME280;33854;57.708;12.008;2023-05-11T03:24:59;101019.63;;;11.98;100.00
48077;BME280;33854;57.708;12.008;2023-05-11T03:27:25;101023.38;;;11.93;100.00
48077;BME280;33854;57.708;12.008;2023-05-11T03:29:51;101023.38;;;11.93;100.00
48077;BME280;33854;57.708;12.008;2023-05-11T03:32:17;101028.47;;;11.96;100.00
48077;BME280;33854;57.708;12.008;2023-05-11T03:34:43;101021.63;;;11.93;100.00
48077;BME280;33854;57.708;12.008;2023-05-11T03:37:09;101032.13;;;11.92;100.00
48077;BME280;33854;57.708;12.008;2023-05-11T03:39:37;101015.19;;;11.82;100.00
48077;BME280;33854;57.708;12.008;2023-05-11T03:42:04;101028.94;;;11.85;100.00
48077;BME280;33854;57.708;12.008;2023-05-11T03:44:33;101031.09;;;11.96;100.00
48077;BME280;33854;57.708;12.008;2023-05-11T03:47:02;101037.22;;;11.95;100.00
48077;BME280;33854;57.708;12.008;2023-05-11T03:49:28;101039.22;;;11.90;100.00
48077;BME280;33854;57.708;12.008;2023-05-11T03:51:55;101036.66;;;11.88;100.00
48077;BME280;33854;57.708;12.008;2023-05-11T03:54:21;101037.38;;;11.92;100.00
48077;BME280;33854;57.708;12.008;2023-05-11T03:56:47;101042.22;;;11.99;100.00
48077;BME280;33854;57.708;12.008;2023-05-11T03:59:16;101046.69;;;11.97;100.00
48077;BME280;33854;57.708;12.008;2023-05-11T04:01:42;101046.91;;;11.93;100.00
48077;BME280;33854;57.708;12.008;2023-05-11T04:04:08;101044.34;;;11.91;100.00
48077;BME280;33854;57.708;12.008;2023-05-11T04:06:34;101045.94;;;11.95;100.00
48077;BME280;33854;57.708;12.008;2023-05-11T04:08:59;101044.84;;;11.99;100.00
48077;BME280;33854;57.708;12.008;2023-05-11T04:11:24;101042.03;;;12.04;100.00
48077;BME280;33854;57.708;12.008;2023-05-11T04:13:52;101039.31;;;12.06;100.00
48077;BME280;33854;57.708;12.008;2023-05-11T04:16:17;101043.28;;;12.14;100.00
48077;BME280;33854;57.708;12.008;2023-05-11T04:18:42;101042.59;;;12.11;100.00
48077;BME280;33854;57.708;12.008;2023-05-11T04:21:08;101048.81;;;12.08;100.00
48077;BME280;33854;57.708;12.008;2023-05-11T04:23:35;101053.75;;;12.14;100.00
48077;BME280;33854;57.708;12.008;2023-05-11T04:26:01;101050.69;;;12.23;100.00
48077;BME280;33854;57.708;12.008;2023-05-11T04:28:26;101036.38;;;12.13;100.00
48077;BME280;33854;57.708;12.008;2023-05-11T04:30:56;101059.41;;;12.24;100.00
48077;BME280;33854;57.708;12.008;2023-05-11T04:33:22;101059.97;;;12.30;100.00
48077;BME280;33854;57.708;12.008;2023-05-11T04:35:49;101056.41;;;12.31;100.00
48077;BME280;33854;57.708;12.008;2023-05-11T04:38:15;101069.72;;;12.27;100.00
48077;BME280;33854;57.708;12.008;2023-05-11T04:40:41;101061.63;;;12.31;100.00
48077;BME280;33854;57.708;12.008;2023-05-11T04:43:06;101058.13;;;12.32;100.00
48077;BME280;33854;57.708;12.008;2023-05-11T04:45:32;101064.06;;;12.36;100.00
48077;BME280;33854;57.708;12.008;2023-05-11T04:47:57;101070.00;;;12.39;100.00
48077;BME280;33854;57.708;12.008;2023-05-11T04:50:22;101064.44;;;12.45;100.00
48077;BME280;33854;57.708;12.008;2023-05-11T04:52:48;101072.09;;;12.50;100.00
48077;BME280;33854;57.708;12.008;2023-05-11T04:55:14;101061.75;;;12.47;100.00
48077;BME280;33854;57.708;12.008;2023-05-11T04:57:40;101075.25;;;12.56;100.00
48077;BME280;33854;57.708;12.008;2023-05-11T05:00:07;101071.69;;;12.57;100.00
48077;BME280;33854;57.708;12.008;2023-05-11T05:02:33;101078.34;;;12.65;100.00
48077;BME280;33854;57.708;12.008;2023-05-11T05:04:59;101080.81;;;12.68;100.00
48077;BME280;33854;57.708;12.008;2023-05-11T05:07:25;101084.97;;;12.72;100.00
48077;BME280;33854;57.708;12.008;2023-05-11T05:09:51;101077.09;;;12.72;100.00
48077;BME280;33854;57.708;12.008;2023-05-11T05:12:16;101091.38;;;12.83;100.00
48077;BME280;33854;57.708;12.008;2023-05-11T05:14:42;101086.97;;;12.84;100.00
48077;BME280;33854;57.708;12.008;2023-05-11T05:17:07;101082.84;;;12.97;100.00
48077;BME280;33854;57.708;12.008;2023-05-11T05:19:32;101091.03;;;13.08;100.00
48077;BME280;33854;57.708;12.008;2023-05-11T05:21:58;101088.19;;;13.12;100.00
48077;BME280;33854;57.708;12.008;2023-05-11T05:24:23;101088.88;;;13.16;100.00
48077;BME280;33854;57.708;12.008;2023-05-11T05:26:49;101093.09;;;13.19;100.00
48077;BME280;33854;57.708;12.008;2023-05-11T05:29:14;101090.72;;;13.31;100.00
48077;BME280;33854;57.708;12.008;2023-05-11T05:31:40;101091.78;;;13.44;100.00
48077;BME280;33854;57.708;12.008;2023-05-11T05:34:05;101100.44;;;13.62;100.00
48077;BME280;33854;57.708;12.008;2023-05-11T05:36:31;101098.00;;;13.75;100.00
48077;BME280;33854;57.708;12.008;2023-05-11T05:38:56;101100.66;;;13.90;100.00
48077;BME280;33854;57.708;12.008;2023-05-11T05:41:22;101101.78;;;14.02;100.00
48077;BME280;33854;57.708;12.008;2023-05-11T05:43:48;101104.66;;;14.13;100.00
48077;BME280;33854;57.708;12.008;2023-05-11T05:46:14;101100.97;;;14.17;100.00
48077;BME280;33854;57.708;12.008;2023-05-11T05:48:39;101105.19;;;14.19;100.00
48077;BME280;33854;57.708;12.008;2023-05-11T05:51:05;101105.59;;;14.12;100.00
48077;BME280;33854;57.708;12.008;2023-05-11T05:53:31;101105.09;;;14.05;100.00
48077;BME280;33854;57.708;12.008;2023-05-11T05:55:56;101101.28;;;14.11;100.00
48077;BME280;33854;57.708;12.008;2023-05-11T05:58:22;101110.97;;;14.26;100.00
48077;BME280;33854;57.708;12.008;2023-05-11T06:00:47;101114.63;;;14.39;100.00
48077;BME280;33854;57.708;12.008;2023-05-11T06:03:13;101109.94;;;14.44;100.00
48077;BME280;33854;57.708;12.008;2023-05-11T06:05:39;101118.91;;;14.71;100.00
48077;BME280;33854;57.708;12.008;2023-05-11T06:08:04;101106.31;;;14.62;100.00
48077;BME280;33854;57.708;12.008;2023-05-11T06:10:29;101118.97;;;14.86;100.00
48077;BME280;33854;57.708;12.008;2023-05-11T06:12:55;101120.03;;;14.97;100.00
48077;BME280;33854;57.708;12.008;2023-05-11T06:15:20;101125.44;;;15.24;100.00
48077;BME280;33854;57.708;12.008;2023-05-11T06:17:47;101126.50;;;15.35;100.00
48077;BME280;33854;57.708;12.008;2023-05-11T06:20:12;101131.94;;;15.48;100.00
48077;BME280;33854;57.708;12.008;2023-05-11T06:22:38;101126.88;;;15.73;100.00
48077;BME280;33854;57.708;12.008;2023-05-11T06:25:04;101134.56;;;16.05;100.00
48077;BME280;33854;57.708;12.008;2023-05-11T06:27:30;101128.72;;;16.28;100.00
48077;BME280;33854;57.708;12.008;2023-05-11T06:29:56;101126.84;;;16.30;100.00
48077;BME280;33854;57.708;12.008;2023-05-11T06:32:21;101126.19;;;16.26;100.00
48077;BME280;33854;57.708;12.008;2023-05-11T06:34:47;101130.88;;;16.35;100.00
48077;BME280;33854;57.708;12.008;2023-05-11T06:37:12;101133.63;;;16.06;100.00
48077;BME280;33854;57.708;12.008;2023-05-11T06:39:45;101133.53;;;16.07;100.00
48077;BME280;33854;57.708;12.008;2023-05-11T06:42:10;101130.34;;;16.02;100.00
48077;BME280;33854;57.708;12.008;2023-05-11T06:44:35;101127.41;;;16.21;100.00
48077;BME280;33854;57.708;12.008;2023-05-11T06:47:01;101138.38;;;16.41;100.00
48077;BME280;33854;57.708;12.008;2023-05-11T06:49:26;101118.09;;;16.29;100.00
48077;BME280;33854;57.708;12.008;2023-05-11T06:51:52;101128.78;;;16.40;100.00
48077;BME280;33854;57.708;12.008;2023-05-11T06:54:17;101133.47;;;16.49;100.00
48077;BME280;33854;57.708;12.008;2023-05-11T06:56:42;101134.50;;;16.61;100.00
48077;BME280;33854;57.708;12.008;2023-05-11T06:59:08;101132.41;;;16.66;100.00
48077;BME280;33854;57.708;12.008;2023-05-11T07:01:34;101137.94;;;16.76;100.00
48077;BME280;33854;57.708;12.008;2023-05-11T07:03:59;101134.84;;;16.69;100.00
48077;BME280;33854;57.708;12.008;2023-05-11T07:06:24;101135.91;;;16.67;100.00
48077;BME280;33854;57.708;12.008;2023-05-11T07:08:50;101134.88;;;16.82;100.00
48077;BME280;33854;57.708;12.008;2023-05-11T07:11:15;101131.31;;;16.83;100.00
48077;BME280;33854;57.708;12.008;2023-05-11T07:13:41;101134.66;;;17.12;100.00
48077;BME280;33854;57.708;12.008;2023-05-11T07:16:06;101138.03;;;17.14;100.00
48077;BME280;33854;57.708;12.008;2023-05-11T07:18:32;101144.91;;;17.29;100.00
48077;BME280;33854;57.708;12.008;2023-05-11T07:20:57;101144.22;;;17.52;100.00
48077;BME280;33854;57.708;12.008;2023-05-11T07:23:22;101146.00;;;17.39;100.00
48077;BME280;33854;57.708;12.008;2023-05-11T07:25:48;101145.66;;;17.31;100.00
48077;BME280;33854;57.708;12.008;2023-05-11T07:28:13;101146.28;;;17.22;100.00
48077;BME280;33854;57.708;12.008;2023-05-11T07:30:39;101136.66;;;17.08;100.00
48077;BME280;33854;57.708;12.008;2023-05-11T07:33:05;101149.09;;;17.06;100.00
48077;BME280;33854;57.708;12.008;2023-05-11T07:35:30;101148.78;;;17.10;100.00
48077;BME280;33854;57.708;12.008;2023-05-11T07:37:56;101154.47;;;17.04;100.00
48077;BME280;33854;57.708;12.008;2023-05-11T07:40:21;101150.94;;;17.18;100.00
48077;BME280;33854;57.708;12.008;2023-05-11T07:42:47;101155.22;;;17.06;100.00
48077;BME280;33854;57.708;12.008;2023-05-11T07:45:12;101159.47;;;17.22;100.00
48077;BME280;33854;57.708;12.008;2023-05-11T07:47:38;101159.41;;;17.36;100.00
48077;BME280;33854;57.708;12.008;2023-05-11T07:50:03;101168.09;;;17.63;100.00
48077;BME280;33854;57.708;12.008;2023-05-11T07:52:29;101160.59;;;17.82;100.00
48077;BME280;33854;57.708;12.008;2023-05-11T07:54:54;101166.75;;;18.08;100.00
48077;BME280;33854;57.708;12.008;2023-05-11T07:57:20;101166.09;;;17.92;100.00
48077;BME280;33854;57.708;12.008;2023-05-11T07:59:46;101160.72;;;17.68;100.00
48077;BME280;33854;57.708;12.008;2023-05-11T08:02:11;101177.19;;;17.72;100.00
48077;BME280;33854;57.708;12.008;2023-05-11T08:04:38;101168.84;;;17.78;100.00
48077;BME280;33854;57.708;12.008;2023-05-11T08:07:03;101169.59;;;18.05;100.00
48077;BME280;33854;57.708;12.008;2023-05-11T08:09:29;101159.59;;;18.34;100.00
48077;BME280;33854;57.708;12.008;2023-05-11T08:11:54;101164.59;;;18.13;100.00
48077;BME280;33854;57.708;12.008;2023-05-11T08:14:25;101173.47;;;18.25;100.00
48077;BME280;33854;57.708;12.008;2023-05-11T08:16:51;101165.41;;;18.26;100.00
48077;BME280;33854;57.708;12.008;2023-05-11T08:19:16;101171.06;;;18.45;100.00
48077;BME280;33854;57.708;12.008;2023-05-11T08:21:42;101166.63;;;18.58;100.00
48077;BME280;33854;57.708;12.008;2023-05-11T08:24:09;101167.88;;;18.89;100.00
48077;BME280;33854;57.708;12.008;2023-05-11T08:26:34;101171.09;;;19.05;99.36
48077;BME280;33854;57.708;12.008;2023-05-11T08:29:00;101172.38;;;19.34;98.18
48077;BME280;33854;57.708;12.008;2023-05-11T08:31:25;101170.97;;;19.07;96.93
48077;BME280;33854;57.708;12.008;2023-05-11T08:33:51;101169.13;;;18.96;96.76
48077;BME280;33854;57.708;12.008;2023-05-11T08:36:16;101176.09;;;18.97;96.76
48077;BME280;33854;57.708;12.008;2023-05-11T08:38:42;101180.25;;;18.89;98.22
48077;BME280;33854;57.708;12.008;2023-05-11T08:41:10;101182.81;;;18.90;98.35
48077;BME280;33854;57.708;12.008;2023-05-11T08:43:37;101184.88;;;18.98;98.10
48077;BME280;33854;57.708;12.008;2023-05-11T08:46:05;101188.41;;;18.86;98.53
48077;BME280;33854;57.708;12.008;2023-05-11T08:48:34;101179.75;;;19.07;98.23
48077;BME280;33854;57.708;12.008;2023-05-11T08:51:00;101179.97;;;19.04;96.99
48077;BME280;33854;57.708;12.008;2023-05-11T08:53:29;101171.84;;;19.18;95.91
48077;BME280;33854;57.708;12.008;2023-05-11T08:55:57;101179.84;;;19.64;95.84
48077;BME280;33854;57.708;12.008;2023-05-11T08:58:23;101173.22;;;19.70;95.64
48077;BME280;33854;57.708;12.008;2023-05-11T09:00:49;101186.72;;;19.89;95.09
48077;BME280;33854;57.708;12.008;2023-05-11T09:03:15;101184.59;;;19.83;94.94
48077;BME280;33854;57.708;12.008;2023-05-11T09:05:43;101191.53;;;19.84;92.63
48077;BME280;33854;57.708;12.008;2023-05-11T09:08:11;101188.50;;;19.31;94.75
48077;BME280;33854;57.708;12.008;2023-05-11T09:10:37;101192.09;;;19.54;94.58
48077;BME280;33854;57.708;12.008;2023-05-11T09:13:02;101193.00;;;19.77;95.50
48077;BME280;33854;57.708;12.008;2023-05-11T09:15:28;101193.75;;;19.44;94.15
48077;BME280;33854;57.708;12.008;2023-05-11T09:17:53;101186.53;;;19.57;94.20
48077;BME280;33854;57.708;12.008;2023-05-11T09:20:32;101191.66;;;19.71;93.16
48077;BME280;33854;57.708;12.008;2023-05-11T09:22:58;101193.94;;;19.65;93.14
48077;BME280;33854;57.708;12.008;2023-05-11T09:25:25;101192.25;;;19.75;92.19
48077;BME280;33854;57.708;12.008;2023-05-11T09:27:51;101187.53;;;19.56;92.14
48077;BME280;33854;57.708;12.008;2023-05-11T09:30:21;101186.97;;;19.86;92.13
48077;BME280;33854;57.708;12.008;2023-05-11T09:32:54;101190.38;;;19.99;90.57
48077;BME280;33854;57.708;12.008;2023-05-11T09:38:08;101182.78;;;20.50;87.51
48077;BME280;33854;57.708;12.008;2023-05-11T09:40:39;101178.69;;;20.57;87.61
48077;BME280;33854;57.708;12.008;2023-05-11T09:43:28;101187.72;;;19.99;88.20
48077;BME280;33854;57.708;12.008;2023-05-11T09:45:56;101189.41;;;20.00;90.33
48077;BME280;33854;57.708;12.008;2023-05-11T09:48:27;101194.00;;;20.31;89.57
48077;BME280;33854;57.708;12.008;2023-05-11T09:51:04;101191.06;;;20.68;86.48
48077;BME280;33854;57.708;12.008;2023-05-11T09:53:43;101192.19;;;20.97;87.09
48077;BME280;33854;57.708;12.008;2023-05-11T09:56:10;101169.72;;;21.01;85.31
48077;BME280;33854;57.708;12.008;2023-05-11T10:01:11;101179.25;;;21.77;82.52
48077;BME280;33854;57.708;12.008;2023-05-11T10:03:50;101185.81;;;21.31;83.62
48077;BME280;33854;57.708;12.008;2023-05-11T10:06:18;101183.84;;;21.33;83.04
48077;BME280;33854;57.708;12.008;2023-05-11T10:08:47;101187.75;;;21.50;80.02
48077;BME280;33854;57.708;12.008;2023-05-11T10:11:13;101196.31;;;21.53;79.31
48077;BME280;33854;57.708;12.008;2023-05-11T10:13:38;101189.94;;;21.45;80.39
48077;BME280;33854;57.708;12.008;2023-05-11T10:16:05;101185.53;;;21.96;82.18
48077;BME280;33854;57.708;12.008;2023-05-11T10:18:32;101190.19;;;22.34;81.40
48077;BME280;33854;57.708;12.008;2023-05-11T10:20:58;101190.91;;;22.06;82.10
48077;BME280;33854;57.708;12.008;2023-05-11T10:23:25;101193.72;;;21.84;82.58
48077;BME280;33854;57.708;12.008;2023-05-11T10:25:51;101192.34;;;21.48;83.84
48077;BME280;33854;57.708;12.008;2023-05-11T10:28:17;101198.94;;;21.12;85.25
48077;BME280;33854;57.708;12.008;2023-05-11T10:30:43;101189.09;;;21.65;84.17
48077;BME280;33854;57.708;12.008;2023-05-11T10:33:10;101177.44;;;21.98;82.69
48077;BME280;33854;57.708;12.008;2023-05-11T10:35:37;101192.53;;;21.97;82.93
48077;BME280;33854;57.708;12.008;2023-05-11T10:38:02;101189.38;;;22.53;82.25
48077;BME280;33854;57.708;12.008;2023-05-11T10:40:29;101190.50;;;22.41;78.88
48077;BME280;33854;57.708;12.008;2023-05-11T10:49:08;101195.66;;;22.73;77.03
48077;BME280;33854;57.708;12.008;2023-05-11T10:54:32;101196.72;;;22.30;78.13
48077;BME280;33854;57.708;12.008;2023-05-11T11:00:03;101201.75;;;22.24;77.54
48077;BME280;33854;57.708;12.008;2023-05-11T11:02:36;101198.00;;;22.36;78.23
48077;BME280;33854;57.708;12.008;2023-05-11T11:05:02;101183.25;;;22.12;78.60
48077;BME280;33854;57.708;12.008;2023-05-11T11:07:30;101208.84;;;22.13;78.93
48077;BME280;33854;57.708;12.008;2023-05-11T11:09:56;101197.69;;;21.89;79.18
48077;BME280;33854;57.708;12.008;2023-05-11T11:12:25;101194.22;;;21.36;80.73
48077;BME280;33854;57.708;12.008;2023-05-11T11:14:56;101198.56;;;21.37;81.99
48077;BME280;33854;57.708;12.008;2023-05-11T11:17:28;101193.94;;;21.19;82.39
48077;BME280;33854;57.708;12.008;2023-05-11T11:19:56;101203.53;;;21.31;82.15
48077;BME280;33854;57.708;12.008;2023-05-11T11:25:00;101207.50;;;21.78;80.95
48077;BME280;33854;57.708;12.008;2023-05-11T11:32:43;101196.56;;;22.22;78.09
48077;BME280;33854;57.708;12.008;2023-05-11T11:38:12;101214.84;;;22.15;77.26
48077;BME280;33854;57.708;12.008;2023-05-11T11:40:43;101215.31;;;22.60;76.73
48077;BME280;33854;57.708;12.008;2023-05-11T11:43:13;101219.59;;;22.42;76.23
48077;BME280;33854;57.708;12.008;2023-05-11T11:46:00;101224.25;;;21.89;77.36
48077;BME280;33854;57.708;12.008;2023-05-11T11:48:37;101216.22;;;21.27;77.94
48077;BME280;33854;57.708;12.008;2023-05-11T11:51:11;101220.13;;;21.65;78.38
48077;BME280;33854;57.708;12.008;2023-05-11T12:01:16;101230.31;;;21.59;76.25
48077;BME280;33854;57.708;12.008;2023-05-11T12:03:45;101230.72;;;21.23;76.69
48077;BME280;33854;57.708;12.008;2023-05-11T12:06:12;101229.44;;;21.18;78.07
48077;BME280;33854;57.708;12.008;2023-05-11T12:08:39;101228.13;;;21.12;77.19
48077;BME280;33854;57.708;12.008;2023-05-11T12:11:06;101234.66;;;20.97;77.93
48077;BME280;33854;57.708;12.008;2023-05-11T12:13:32;101231.69;;;21.22;77.13
48077;BME280;33854;57.708;12.008;2023-05-11T12:18:32;101231.13;;;21.39;75.47
48077;BME280;33854;57.708;12.008;2023-05-11T12:20:58;101232.13;;;22.21;73.48
48077;BME280;33854;57.708;12.008;2023-05-11T12:23:23;101235.06;;;22.28;71.37
48077;BME280;33854;57.708;12.008;2023-05-11T12:26:01;101224.59;;;23.44;67.68
48077;BME280;33854;57.708;12.008;2023-05-11T12:28:27;101223.78;;;24.36;65.57
48077;BME280;33854;57.708;12.008;2023-05-11T12:30:56;101227.56;;;23.97;63.04
48077;BME280;33854;57.708;12.008;2023-05-11T12:33:22;101227.38;;;24.55;61.82
48077;BME280;33854;57.708;12.008;2023-05-11T12:35:52;101223.88;;;24.08;61.36
48077;BME280;33854;57.708;12.008;2023-05-11T12:38:18;101219.97;;;24.12;59.47
48077;BME280;33854;57.708;12.008;2023-05-11T12:40:50;101228.41;;;23.98;58.43
48077;BME280;33854;57.708;12.008;2023-05-11T12:43:20;101233.66;;;24.36;58.50
48077;BME280;33854;57.708;12.008;2023-05-11T12:45:46;101239.28;;;24.60;56.79
48077;BME280;33854;57.708;12.008;2023-05-11T12:48:12;101227.75;;;24.60;57.54
48077;BME280;33854;57.708;12.008;2023-05-11T12:50:39;101231.31;;;24.78;55.55
48077;BME280;33854;57.708;12.008;2023-05-11T12:55:38;101226.13;;;24.22;56.17
48077;BME280;33854;57.708;12.008;2023-05-11T12:58:09;101232.66;;;24.37;55.20
48077;BME280;33854;57.708;12.008;2023-05-11T13:00:35;101231.28;;;24.60;54.11
48077;BME280;33854;57.708;12.008;2023-05-11T13:03:01;101222.69;;;24.93;53.65
48077;BME280;33854;57.708;12.008;2023-05-11T13:05:27;101233.22;;;24.68;52.89
48077;BME280;33854;57.708;12.008;2023-05-11T13:08:01;101232.28;;;25.04;53.75
48077;BME280;33854;57.708;12.008;2023-05-11T13:10:27;101214.97;;;25.61;53.00
48077;BME280;33854;57.708;12.008;2023-05-11T13:12:53;101220.09;;;25.80;51.54
48077;BME280;33854;57.708;12.008;2023-05-11T13:15:20;101224.50;;;26.41;50.03
48077;BME280;33854;57.708;12.008;2023-05-11T13:17:46;101215.75;;;25.54;50.06
48077;BME280;33854;57.708;12.008;2023-05-11T13:22:48;101233.97;;;24.87;51.29
48077;BME280;33854;57.708;12.008;2023-05-11T13:25:17;101233.44;;;24.74;52.56
48077;BME280;33854;57.708;12.008;2023-05-11T13:27:42;101226.78;;;24.33;53.21
48077;BME280;33854;57.708;12.008;2023-05-11T13:30:08;101232.44;;;25.03;52.44